Time;durP1;ratioP1;P1;durP2;ratioP2;P2;SDS_P1;SDS_P2;PMS_P1;PMS_P2;Temp;Humidity;BMP_temperature;BMP_pressure;BME280_temperature;BME280_humidity;BME280_pressure;Samples;Min_cycle;Max_cycle;Signal;HPM_P1;HPM_P2
2023/06/17 00:00:08;;;;;;;7.77;5.07;;;;;;;;;;5055991;28;20383;-73
2023/06/17 00:02:34;;;;;;;5.57;3.87;;;;;;;;;;5055750;28;20971;-73
2023/06/17 00:05:00;;;;;;;5.33;4.60;;;;;;;;;;5054704;28;20406;-73
2023/06/17 00:07:26;;;;;;;11.00;4.50;;;;;;;;;;5056612;28;20417;-73
2023/06/17 00:09:52;;;;;;;7.13;4.70;;;;;;;;;;5054966;28;20903;-73
2023/06/17 00:12:18;;;;;;;8.20;4.73;;;;;;;;;;5056334;28;20394;-73
2023/06/17 00:14:46;;;;;;;6.50;4.83;;;;;;;;;;5056028;28;20412;-73
2023/06/17 00:17:14;;;;;;;8.10;5.20;;;;;;;;;;5054817;28;20382;-73
2023/06/17 00:19:40;;;;;;;5.07;4.57;;;;;;;;;;5055578;28;20772;-72
2023/06/17 00:22:08;;;;;;;6.53;4.37;;;;;;;;;;5055263;28;20866;-73
2023/06/17 00:24:34;;;;;;;8.97;4.97;;;;;;;;;;5054912;28;20398;-73
2023/06/17 00:27:00;;;;;;;7.33;4.77;;;;;;;;;;5055655;28;20382;-73
2023/06/17 00:29:26;;;;;;;5.07;3.60;;;;;;;;;;5055916;28;20370;-73
2023/06/17 00:31:52;;;;;;;5.20;4.70;;;;;;;;;;5055783;28;20782;-74
2023/06/17 00:34:18;;;;;;;5.27;4.67;;;;;;;;;;5055904;28;20374;-73
2023/06/17 00:36:44;;;;;;;5.60;4.47;;;;;;;;;;5055417;28;20472;-73
2023/06/17 00:39:10;;;;;;;6.83;4.97;;;;;;;;;;5055733;28;20752;-73
2023/06/17 00:41:36;;;;;;;6.10;4.27;;;;;;;;;;5055963;28;21005;-73
2023/06/17 00:44:02;;;;;;;5.80;5.10;;;;;;;;;;5055326;28;20489;-73
2023/06/17 00:46:34;;;;;;;6.80;4.70;;;;;;;;;;5055503;28;20905;-72
2023/06/17 00:49:01;;;;;;;8.10;4.53;;;;;;;;;;5055424;28;20404;-72
2023/06/17 00:51:28;;;;;;;7.73;4.67;;;;;;;;;;5055571;28;20946;-72
2023/06/17 00:53:54;;;;;;;5.77;5.07;;;;;;;;;;5055346;28;20736;-73
2023/06/17 00:56:21;;;;;;;5.50;4.40;;;;;;;;;;5055201;28;20403;-72
2023/06/17 00:58:48;;;;;;;5.77;5.27;;;;;;;;;;5055339;28;20762;-72
2023/06/17 01:01:15;;;;;;;5.50;5.00;;;;;;;;;;5055273;28;20445;-72
2023/06/17 01:03:41;;;;;;;9.20;4.53;;;;;;;;;;5055569;28;20503;-72
2023/06/17 01:06:12;;;;;;;5.33;4.67;;;;;;;;;;5055120;28;20374;-72
2023/06/17 01:08:44;;;;;;;5.30;4.53;;;;;;;;;;5055931;28;20374;-72
2023/06/17 01:11:14;;;;;;;5.63;4.80;;;;;;;;;;5055499;28;20451;-72
2023/06/17 01:13:43;;;;;;;6.63;4.63;;;;;;;;;;5055833;28;20808;-72
2023/06/17 01:16:09;;;;;;;6.23;4.53;;;;;;;;;;5055495;28;20375;-72
2023/06/17 01:18:36;;;;;;;6.57;5.17;;;;;;;;;;5055682;28;20371;-72
2023/06/17 01:21:03;;;;;;;5.43;4.27;;;;;;;;;;5055046;28;20397;-73
2023/06/17 01:23:34;;;;;;;5.70;4.77;;;;;;;;;;5055652;28;20375;-72
2023/06/17 01:26:05;;;;;;;5.10;4.60;;;;;;;;;;5055670;28;20400;-73
2023/06/17 01:28:31;;;;;;;4.63;4.10;;;;;;;;;;5055758;28;20408;-72
2023/06/17 01:30:58;;;;;;;6.53;4.40;;;;;;;;;;5058883;28;20495;-73
2023/06/17 01:33:25;;;;;;;6.57;4.57;;;;;;;;;;5059310;28;20798;-73
2023/06/17 01:36:01;;;;;;;5.17;4.40;;;;;;;;;;5059321;28;20852;-73
2023/06/17 01:38:35;;;;;;;9.47;5.17;;;;;;;;;;5059253;28;20405;-72
2023/06/17 01:41:03;;;;;;;7.10;4.90;;;;;;;;;;5059313;28;20398;-73
2023/06/17 01:43:31;;;;;;;5.10;4.70;;;;;;;;;;5058748;28;20946;-73
2023/06/17 01:45:58;;;;;;;4.27;3.70;;;;;;;;;;5058657;28;20446;-73
2023/06/17 01:48:24;;;;;;;5.13;4.63;;;;;;;;;;5058568;28;20393;-72
2023/06/17 01:50:50;;;;;;;4.73;4.10;;;;;;;;;;5059240;28;20458;-73
2023/06/17 01:53:16;;;;;;;5.13;4.63;;;;;;;;;;5058307;28;20404;-72
2023/06/17 01:55:42;;;;;;;5.87;4.93;;;;;;;;;;5058880;28;20371;-73
2023/06/17 01:58:08;;;;;;;7.07;5.27;;;;;;;;;;5058272;28;20792;-72
2023/06/17 02:00:34;;;;;;;5.93;4.77;;;;;;;;;;5058427;28;20419;-72
2023/06/17 02:03:00;;;;;;;5.43;4.60;;;;;;;;;;5058824;28;20516;-72
2023/06/17 02:05:26;;;;;;;5.23;4.73;;;;;;;;;;5059102;28;20378;-72
2023/06/17 02:07:55;;;;;;;5.90;5.30;;;;;;;;;;5057926;28;20408;-72
2023/06/17 02:10:21;;;;;;;6.50;4.97;;;;;;;;;;5058653;28;20457;-72
2023/06/17 02:12:47;;;;;;;6.63;4.73;;;;;;;;;;5059733;28;20503;-72
2023/06/17 02:15:13;;;;;;;5.40;4.90;;;;;;;;;;5057292;28;20952;-72
2023/06/17 02:17:39;;;;;;;5.60;5.07;;;;;;;;;;5058732;28;20387;-72
2023/06/17 02:20:09;;;;;;;5.13;4.60;;;;;;;;;;5058677;28;20881;-72
2023/06/17 02:22:35;;;;;;;5.23;4.73;;;;;;;;;;5058413;28;20426;-72
2023/06/17 02:25:02;;;;;;;5.47;5.00;;;;;;;;;;5058373;28;20455;-72
2023/06/17 02:27:28;;;;;;;7.13;5.60;;;;;;;;;;5058359;28;20738;-72
2023/06/17 02:29:54;;;;;;;5.17;4.67;;;;;;;;;;5058500;28;20432;-72
2023/06/17 02:32:20;;;;;;;5.10;4.60;;;;;;;;;;5058289;28;20416;-72
2023/06/17 02:34:48;;;;;;;8.10;5.90;;;;;;;;;;5058618;28;20408;-72
2023/06/17 02:37:14;;;;;;;5.90;5.10;;;;;;;;;;5058110;28;20471;-72
2023/06/17 02:39:40;;;;;;;6.80;6.13;;;;;;;;;;5058248;28;20468;-73
2023/06/17 02:42:08;;;;;;;6.97;5.30;;;;;;;;;;5055525;28;20461;-72
2023/06/17 02:44:35;;;;;;;7.83;5.33;;;;;;;;;;5056912;28;20474;-72
2023/06/17 02:47:02;;;;;;;7.90;5.90;;;;;;;;;;5056652;28;20904;-73
2023/06/17 02:49:28;;;;;;;6.53;5.93;;;;;;;;;;5058715;28;20407;-72
2023/06/17 02:51:54;;;;;;;6.57;4.73;;;;;;;;;;5057944;28;20411;-72
2023/06/17 02:54:20;;;;;;;6.50;5.17;;;;;;;;;;5058282;28;20408;-73
2023/06/17 02:56:46;;;;;;;6.20;5.30;;;;;;;;;;5058290;28;20371;-72
2023/06/17 02:59:13;;;;;;;7.23;6.20;;;;;;;;;;5057919;28;20383;-72
2023/06/17 03:01:42;;;;;;;6.07;5.50;;;;;;;;;;5057238;28;20465;-72
2023/06/17 03:04:10;;;;;;;11.90;5.03;;;;;;;;;;5057384;28;20394;-72
2023/06/17 03:06:36;;;;;;;6.57;5.87;;;;;;;;;;5058292;28;20398;-73
2023/06/17 03:09:03;;;;;;;12.20;5.80;;;;;;;;;;5056994;28;20895;-72
2023/06/17 03:11:29;;;;;;;7.30;6.00;;;;;;;;;;5057813;28;20494;-72
2023/06/17 03:13:55;;;;;;;7.30;4.87;;;;;;;;;;5057960;28;20395;-72
2023/06/17 03:16:24;;;;;;;6.00;5.40;;;;;;;;;;5058094;28;20820;-72
2023/06/17 03:18:51;;;;;;;7.00;6.23;;;;;;;;;;5056480;28;20391;-72
2023/06/17 03:21:17;;;;;;;6.73;6.03;;;;;;;;;;5057653;28;20383;-72
2023/06/17 03:23:43;;;;;;;6.60;5.73;;;;;;;;;;5057821;28;20506;-72
2023/06/17 03:26:09;;;;;;;7.43;6.67;;;;;;;;;;5057749;28;20411;-72
2023/06/17 03:28:35;;;;;;;11.67;6.50;;;;;;;;;;5057604;28;20391;-72
2023/06/17 03:31:02;;;;;;;8.33;6.33;;;;;;;;;;5057180;28;20414;-72
2023/06/17 03:33:28;;;;;;;8.23;7.33;;;;;;;;;;5057743;28;20387;-72
2023/06/17 03:35:55;;;;;;;6.83;5.80;;;;;;;;;;5057650;28;20559;-72
2023/06/17 03:38:21;;;;;;;7.03;6.30;;;;;;;;;;5057134;28;20462;-72
2023/06/17 03:40:47;;;;;;;8.60;5.80;;;;;;;;;;5057198;28;20412;-72
2023/06/17 03:43:13;;;;;;;6.13;5.40;;;;;;;;;;5057204;28;20495;-72
2023/06/17 03:45:40;;;;;;;6.63;4.93;;;;;;;;;;5057304;28;20476;-72
2023/06/17 03:48:06;;;;;;;8.37;6.57;;;;;;;;;;5057331;28;20418;-72
2023/06/17 03:50:32;;;;;;;8.10;6.80;;;;;;;;;;5057482;28;20408;-72
2023/06/17 03:52:58;;;;;;;7.40;6.23;;;;;;;;;;5057409;28;20371;-72
2023/06/17 03:55:25;;;;;;;10.30;6.10;;;;;;;;;;5057109;28;20436;-72
2023/06/17 03:57:52;;;;;;;6.57;5.87;;;;;;;;;;5056960;28;20918;-72
2023/06/17 04:00:19;;;;;;;6.77;6.10;;;;;;;;;;5056546;28;20498;-72
2023/06/17 04:02:47;;;;;;;6.57;6.00;;;;;;;;;;5057211;28;20430;-72
2023/06/17 04:05:13;;;;;;;7.90;6.00;;;;;;;;;;5056556;28;20424;-72
2023/06/17 04:07:39;;;;;;;9.13;6.07;;;;;;;;;;5056906;28;20415;-72
2023/06/17 04:10:08;;;;;;;7.20;6.43;;;;;;;;;;5057065;28;20379;-74
2023/06/17 04:12:38;;;;;;;6.70;6.10;;;;;;;;;;5057821;28;20724;-72
2023/06/17 04:15:05;;;;;;;9.13;6.73;;;;;;;;;;5057220;28;20387;-72
2023/06/17 04:17:31;;;;;;;8.87;6.70;;;;;;;;;;5056864;28;20454;-72
2023/06/17 04:20:04;;;;;;;10.87;7.10;;;;;;;;;;5056554;28;20858;-72
2023/06/17 04:22:30;;;;;;;8.23;6.77;;;;;;;;;;5056739;28;20474;-72
2023/06/17 04:24:56;;;;;;;9.70;7.87;;;;;;;;;;5056699;28;20412;-72
2023/06/17 04:27:22;;;;;;;8.70;7.10;;;;;;;;;;5056650;28;20734;-72
2023/06/17 04:29:48;;;;;;;9.80;7.63;;;;;;;;;;5056547;28;20408;-72
2023/06/17 04:32:15;;;;;;;7.60;6.40;;;;;;;;;;5056956;28;20397;-72
2023/06/17 04:34:43;;;;;;;10.20;7.93;;;;;;;;;;5057016;28;20404;-72
2023/06/17 04:37:09;;;;;;;9.43;7.30;;;;;;;;;;5056085;28;20441;-72
2023/06/17 04:39:35;;;;;;;10.13;7.70;;;;;;;;;;5057082;28;20409;-72
2023/06/17 04:42:01;;;;;;;8.50;7.57;;;;;;;;;;5056608;28;20508;-72
2023/06/17 04:44:31;;;;;;;8.53;6.90;;;;;;;;;;5056161;28;20408;-72
2023/06/17 04:46:59;;;;;;;9.27;7.10;;;;;;;;;;5056375;28;20425;-72
2023/06/17 04:49:26;;;;;;;11.13;6.67;;;;;;;;;;5056153;28;20482;-72
2023/06/17 04:51:52;;;;;;;7.87;6.37;;;;;;;;;;5056937;28;20416;-72
2023/06/17 04:54:18;;;;;;;8.83;7.30;;;;;;;;;;5056464;28;20387;-72
2023/06/17 04:56:45;;;;;;;10.53;7.43;;;;;;;;;;5056336;28;20942;-72
2023/06/17 04:59:12;;;;;;;9.47;7.40;;;;;;;;;;5056701;28;20383;-73
2023/06/17 05:01:38;;;;;;;8.30;6.73;;;;;;;;;;5056372;28;20894;-72
2023/06/17 05:04:05;;;;;;;8.13;7.30;;;;;;;;;;5057422;28;20379;-72
2023/06/17 05:06:31;;;;;;;9.17;7.00;;;;;;;;;;5060503;28;20407;-72
2023/06/17 05:08:57;;;;;;;11.30;6.53;;;;;;;;;;5060459;28;20383;-72
2023/06/17 05:11:24;;;;;;;13.13;7.43;;;;;;;;;;5059706;28;20433;-72
2023/06/17 05:13:50;;;;;;;9.50;7.63;;;;;;;;;;5061078;28;20427;-72
2023/06/17 05:16:16;;;;;;;13.93;8.10;;;;;;;;;;5059965;28;20394;-72
2023/06/17 05:18:42;;;;;;;8.50;7.60;;;;;;;;;;5060141;28;20468;-72
2023/06/17 05:21:08;;;;;;;13.00;8.17;;;;;;;;;;5059960;28;20415;-72
2023/06/17 05:23:34;;;;;;;8.87;7.90;;;;;;;;;;5059787;28;20440;-72
2023/06/17 05:26:00;;;;;;;9.53;8.53;;;;;;;;;;5059826;28;20374;-72
2023/06/17 05:28:27;;;;;;;10.27;8.30;;;;;;;;;;5059956;28;20415;-72
2023/06/17 05:30:53;;;;;;;8.83;7.27;;;;;;;;;;5059631;28;20434;-72
2023/06/17 05:33:19;;;;;;;7.97;7.17;;;;;;;;;;5059831;28;20782;-72
2023/06/17 05:35:45;;;;;;;13.83;8.20;;;;;;;;;;5058570;28;20458;-72
2023/06/17 05:38:11;;;;;;;10.43;6.70;;;;;;;;;;5059381;28;20403;-76
2023/06/17 05:40:36;;;;;;;10.90;7.63;;;;;;;;;;5059348;28;20382;-72
2023/06/17 05:43:02;;;;;;;11.70;7.57;;;;;;;;;;5059682;28;20652;-72
2023/06/17 05:45:28;;;;;;;10.70;7.87;;;;;;;;;;5059647;28;20453;-74
2023/06/17 05:47:54;;;;;;;8.53;7.30;;;;;;;;;;5059538;28;20746;-74
2023/06/17 05:50:21;;;;;;;9.30;7.63;;;;;;;;;;5059331;28;20469;-71
2023/06/17 05:52:47;;;;;;;8.87;7.90;;;;;;;;;;5057934;28;20924;-71
2023/06/17 05:55:13;;;;;;;10.17;8.23;;;;;;;;;;5059050;28;20409;-73
2023/06/17 05:57:39;;;;;;;10.97;7.50;;;;;;;;;;5059281;28;20402;-72
2023/06/17 06:00:06;;;;;;;7.77;6.90;;;;;;;;;;5059735;28;20436;-72
2023/06/17 06:02:32;;;;;;;9.30;6.97;;;;;;;;;;5058757;28;21021;-72
2023/06/17 06:04:57;;;;;;;10.30;8.20;;;;;;;;;;5059221;28;20383;-72
2023/06/17 06:07:23;;;;;;;11.20;6.97;;;;;;;;;;5059065;28;20867;-72
2023/06/17 06:09:49;;;;;;;9.10;7.10;;;;;;;;;;5058844;28;20375;-74
2023/06/17 06:12:16;;;;;;;7.90;7.10;;;;;;;;;;5057828;28;20403;-74
2023/06/17 06:14:42;;;;;;;10.27;8.20;;;;;;;;;;5057795;28;20447;-72
2023/06/17 06:17:08;;;;;;;8.40;7.13;;;;;;;;;;5058825;28;20406;-72
2023/06/17 06:19:34;;;;;;;8.60;7.00;;;;;;;;;;5059313;28;20404;-72
2023/06/17 06:22:00;;;;;;;10.00;7.23;;;;;;;;;;5059136;28;20915;-72
2023/06/17 06:24:26;;;;;;;9.10;7.50;;;;;;;;;;5059434;28;20482;-72
2023/06/17 06:26:52;;;;;;;7.80;7.00;;;;;;;;;;5057581;28;20416;-72
2023/06/17 06:29:18;;;;;;;7.27;6.57;;;;;;;;;;5058806;28;20375;-72
2023/06/17 06:31:44;;;;;;;8.00;6.90;;;;;;;;;;5058868;28;20394;-72
2023/06/17 06:34:10;;;;;;;8.53;6.93;;;;;;;;;;5058788;28;20378;-72
2023/06/17 06:36:36;;;;;;;7.70;6.50;;;;;;;;;;5058858;28;20434;-72
2023/06/17 06:39:02;;;;;;;9.23;7.57;;;;;;;;;;5058458;28;20512;-72
2023/06/17 06:41:28;;;;;;;7.07;6.37;;;;;;;;;;5058334;28;20434;-72
2023/06/17 06:43:54;;;;;;;8.43;6.50;;;;;;;;;;5057668;28;20387;-71
2023/06/17 06:46:20;;;;;;;9.23;6.27;;;;;;;;;;5058587;28;20396;-72
2023/06/17 06:48:45;;;;;;;10.83;7.00;;;;;;;;;;5058759;28;20415;-72
2023/06/17 06:51:13;;;;;;;11.53;7.30;;;;;;;;;;5058381;28;20928;-72
2023/06/17 06:53:38;;;;;;;9.10;6.83;;;;;;;;;;5058048;28;20407;-72
2023/06/17 06:56:04;;;;;;;7.80;6.53;;;;;;;;;;5058319;28;20894;-72
2023/06/17 06:58:32;;;;;;;8.60;6.00;;;;;;;;;;5056779;28;20420;-72
2023/06/17 07:00:58;;;;;;;7.00;6.30;;;;;;;;;;5058810;28;20407;-72
2023/06/17 07:03:25;;;;;;;8.50;6.40;;;;;;;;;;5057920;28;20554;-73
2023/06/17 07:05:51;;;;;;;9.50;6.10;;;;;;;;;;5057701;28;20958;-72
2023/06/17 07:08:17;;;;;;;7.10;6.40;;;;;;;;;;5057845;28;20404;-73
2023/06/17 07:10:43;;;;;;;9.23;6.67;;;;;;;;;;5057594;28;20416;-72
2023/06/17 07:13:09;;;;;;;7.00;5.90;;;;;;;;;;5058244;28;20742;-72
2023/06/17 07:15:35;;;;;;;6.97;6.27;;;;;;;;;;5057410;28;20413;-72
2023/06/17 07:18:01;;;;;;;6.60;5.30;;;;;;;;;;5058196;28;20409;-72
2023/06/17 07:20:28;;;;;;;7.33;6.47;;;;;;;;;;5057552;28;20404;-72
2023/06/17 07:22:54;;;;;;;10.57;6.57;;;;;;;;;;5057678;28;20437;-72
2023/06/17 07:25:20;;;;;;;8.10;6.50;;;;;;;;;;5057715;28;20444;-72
2023/06/17 07:27:46;;;;;;;7.27;6.57;;;;;;;;;;5056801;28;20809;-79
2023/06/17 07:30:12;;;;;;;6.97;6.17;;;;;;;;;;5061028;28;20412;-79
2023/06/17 07:32:38;;;;;;;7.70;6.07;;;;;;;;;;5061385;28;20383;-78
2023/06/17 07:35:05;;;;;;;6.03;5.10;;;;;;;;;;5063044;28;20433;-79
2023/06/17 07:37:31;;;;;;;6.93;6.23;;;;;;;;;;5056080;28;20409;-79
2023/06/17 07:39:57;;;;;;;7.80;6.10;;;;;;;;;;5056454;28;20392;-79
2023/06/17 07:42:22;;;;;;;6.20;5.30;;;;;;;;;;5055317;28;20486;-79
2023/06/17 07:44:48;;;;;;;5.97;5.43;;;;;;;;;;5055986;28;20400;-79
2023/06/17 07:47:15;;;;;;;6.37;5.43;;;;;;;;;;5056021;28;20492;-79
2023/06/17 07:49:41;;;;;;;8.73;5.93;;;;;;;;;;5055211;28;20416;-78
2023/06/17 07:52:07;;;;;;;8.80;6.20;;;;;;;;;;5054983;28;20411;-79
2023/06/17 07:54:35;;;;;;;6.17;5.20;;;;;;;;;;5056439;28;20419;-79
2023/06/17 07:57:02;;;;;;;14.67;5.63;;;;;;;;;;5057293;28;20411;-79
2023/06/17 07:59:28;;;;;;;6.80;6.10;;;;;;;;;;5061556;28;20400;-78
2023/06/17 08:01:54;;;;;;;9.10;5.90;;;;;;;;;;5056350;28;20466;-79
2023/06/17 08:04:20;;;;;;;6.10;5.50;;;;;;;;;;5055507;28;20400;-79
2023/06/17 08:06:46;;;;;;;9.33;4.73;;;;;;;;;;5055549;28;20396;-79
2023/06/17 08:09:12;;;;;;;6.70;5.93;;;;;;;;;;5057206;28;20397;-79
2023/06/17 08:11:38;;;;;;;6.40;4.90;;;;;;;;;;5058394;28;20399;-79
2023/06/17 08:14:04;;;;;;;8.73;5.80;;;;;;;;;;5059422;28;20415;-79
2023/06/17 08:16:30;;;;;;;7.27;5.93;;;;;;;;;;5055767;28;20802;-79
2023/06/17 08:18:56;;;;;;;6.27;5.03;;;;;;;;;;5056645;28;20391;-78
2023/06/17 08:21:22;;;;;;;5.20;4.70;;;;;;;;;;5054766;28;20817;-79
2023/06/17 08:23:50;;;;;;;8.03;4.90;;;;;;;;;;5055304;28;20420;-79
2023/06/17 08:26:16;;;;;;;9.53;5.00;;;;;;;;;;5055969;28;20470;-79
2023/06/17 08:28:42;;;;;;;5.47;4.47;;;;;;;;;;5054029;28;20400;-79
2023/06/17 08:31:08;;;;;;;5.93;4.80;;;;;;;;;;5053957;28;20500;-79
2023/06/17 08:33:34;;;;;;;6.67;4.73;;;;;;;;;;5054547;28;20400;-79
2023/06/17 08:36:00;;;;;;;5.27;4.77;;;;;;;;;;5054530;28;20443;-79
2023/06/17 08:38:26;;;;;;;7.43;5.13;;;;;;;;;;5055351;28;20450;-79
2023/06/17 08:40:52;;;;;;;8.90;4.23;;;;;;;;;;5059642;28;20400;-79
2023/06/17 08:43:20;;;;;;;4.47;4.07;;;;;;;;;;5058602;28;20463;-79
2023/06/17 08:45:49;;;;;;;6.13;4.20;;;;;;;;;;5059450;28;20483;-79
2023/06/17 08:48:16;;;;;;;7.17;4.17;;;;;;;;;;5059758;28;20396;-79
2023/06/17 08:50:42;;;;;;;4.73;4.10;;;;;;;;;;5060280;28;20408;-79
2023/06/17 08:53:08;;;;;;;5.90;4.17;;;;;;;;;;5065753;28;20427;-79
2023/06/17 08:55:35;;;;;;;4.20;3.80;;;;;;;;;;5066062;28;20494;-80
2023/06/17 08:58:01;;;;;;;5.93;4.07;;;;;;;;;;5064268;28;20802;-80
2023/06/17 09:00:27;;;;;;;4.40;4.00;;;;;;;;;;5065140;28;20415;-79
2023/06/17 09:02:54;;;;;;;4.37;3.97;;;;;;;;;;5063734;28;20455;-79
2023/06/17 09:05:20;;;;;;;7.13;4.80;;;;;;;;;;5059623;28;20427;-79
2023/06/17 09:07:46;;;;;;;5.10;4.47;;;;;;;;;;5059303;28;20396;-79
2023/06/17 09:10:15;;;;;;;6.43;4.50;;;;;;;;;;5067733;28;20411;-80
2023/06/17 09:12:41;;;;;;;4.63;3.93;;;;;;;;;;5059296;28;20861;-80
2023/06/17 09:15:08;;;;;;;6.20;4.33;;;;;;;;;;5058527;28;20416;-80
2023/06/17 09:17:34;;;;;;;4.73;4.33;;;;;;;;;;5058120;28;20403;-80
2023/06/17 09:20:10;;;;;;;5.20;4.50;;;;;;;;;;5057666;28;20400;-80
2023/06/17 09:22:38;;;;;;;8.50;4.73;;;;;;;;;;5057688;28;20466;-80
2023/06/17 09:25:04;;;;;;;4.97;4.47;;;;;;;;;;5059067;28;20835;-79
2023/06/17 09:27:30;;;;;;;4.67;4.13;;;;;;;;;;5058577;28;20414;-80
2023/06/17 09:30:06;;;;;;;4.83;4.07;;;;;;;;;;5059224;28;20895;-80
2023/06/17 09:32:40;;;;;;;6.03;4.20;;;;;;;;;;5054986;28;20915;-80
2023/06/17 09:35:07;;;;;;;5.50;4.30;;;;;;;;;;5057278;28;20453;-80
2023/06/17 09:37:32;;;;;;;4.50;4.13;;;;;;;;;;5057387;28;20818;-80
2023/06/17 09:39:59;;;;;;;5.60;4.80;;;;;;;;;;5059190;28;20411;-80
2023/06/17 09:42:32;;;;;;;5.07;4.57;;;;;;;;;;5056115;28;20459;-81
2023/06/17 09:45:03;;;;;;;4.40;4.00;;;;;;;;;;5056480;28;20473;-81
2023/06/17 09:47:38;;;;;;;5.50;4.47;;;;;;;;;;5056101;28;20908;-81
2023/06/17 09:50:06;;;;;;;4.50;4.07;;;;;;;;;;5055181;28;20408;-81
2023/06/17 09:52:35;;;;;;;5.67;4.07;;;;;;;;;;5055543;28;20408;-81
2023/06/17 09:55:02;;;;;;;4.77;4.33;;;;;;;;;;5055856;28;20404;-81
2023/06/17 09:57:33;;;;;;;5.53;4.73;;;;;;;;;;5055076;28;20423;-81
2023/06/17 10:00:14;;;;;;;5.37;4.30;;;;;;;;;;5055798;28;20408;-81
2023/06/17 10:02:40;;;;;;;5.80;4.70;;;;;;;;;;5055366;28;20459;-81
2023/06/17 10:05:10;;;;;;;4.53;4.13;;;;;;;;;;5054763;28;20506;-81
2023/06/17 10:07:37;;;;;;;6.50;4.33;;;;;;;;;;5054864;28;20506;-81
2023/06/17 10:10:04;;;;;;;6.13;4.57;;;;;;;;;;5055794;28;20407;-81
2023/06/17 10:12:31;;;;;;;5.90;3.93;;;;;;;;;;5055199;28;20439;-81
2023/06/17 10:14:58;;;;;;;4.77;4.27;;;;;;;;;;5055899;28;20486;-81
2023/06/17 10:17:25;;;;;;;5.37;4.87;;;;;;;;;;5055726;28;20409;-81
2023/06/17 10:19:52;;;;;;;7.63;4.60;;;;;;;;;;5054692;28;20508;-81
2023/06/17 10:22:19;;;;;;;5.13;4.70;;;;;;;;;;5054981;28;20463;-81
2023/06/17 10:24:46;;;;;;;5.40;4.70;;;;;;;;;;5055777;28;20786;-81
2023/06/17 10:27:12;;;;;;;6.93;5.40;;;;;;;;;;5055749;28;20750;-81
2023/06/17 10:29:43;;;;;;;5.03;4.53;;;;;;;;;;5055794;28;20438;-81
2023/06/17 10:32:26;;;;;;;10.67;4.70;;;;;;;;;;5058849;28;20411;-81
2023/06/17 10:37:47;;;;;;;4.90;4.40;;;;;;;;;;5134554;27;21047;-80
2023/06/17 10:40:26;;;;;;;5.33;4.60;;;;;;;;;;5112333;28;20437;-80
2023/06/17 10:43:01;;;;;;;7.70;5.00;;;;;;;;;;5112275;28;20427;-80
2023/06/17 10:45:31;;;;;;;5.10;4.60;;;;;;;;;;5112327;28;20823;-79
2023/06/17 10:48:14;;;;;;;4.50;4.10;;;;;;;;;;5103579;28;20958;-80
2023/06/17 10:50:40;;;;;;;4.40;4.00;;;;;;;;;;5103274;28;20493;-79
2023/06/17 10:53:07;;;;;;;5.53;4.17;;;;;;;;;;5100869;28;20406;-80
2023/06/17 10:55:33;;;;;;;5.07;4.13;;;;;;;;;;5100667;28;20465;-80
2023/06/17 10:57:59;;;;;;;5.20;4.50;;;;;;;;;;5102125;28;20409;-80
2023/06/17 11:00:25;;;;;;;4.70;4.30;;;;;;;;;;5112488;28;20409;-80
2023/06/17 11:02:51;;;;;;;5.43;4.10;;;;;;;;;;5111496;28;20397;-80
2023/06/17 11:05:18;;;;;;;6.70;4.40;;;;;;;;;;5112095;28;20402;-80
2023/06/17 11:07:44;;;;;;;4.57;4.17;;;;;;;;;;5111964;28;20418;-80
2023/06/17 11:10:10;;;;;;;3.93;3.63;;;;;;;;;;5094583;28;20410;-80
2023/06/17 11:12:37;;;;;;;5.47;4.20;;;;;;;;;;5108565;28;20398;-80
2023/06/17 11:15:06;;;;;;;4.13;3.73;;;;;;;;;;5102950;28;20500;-81
2023/06/17 11:17:32;;;;;;;3.80;3.40;;;;;;;;;;5099965;28;20528;-80
2023/06/17 11:19:58;;;;;;;6.67;3.67;;;;;;;;;;5108324;28;20406;-80
2023/06/17 11:22:24;;;;;;;3.87;3.37;;;;;;;;;;5110508;28;20454;-80
2023/06/17 11:24:50;;;;;;;3.17;2.97;;;;;;;;;;5111730;28;20419;-80
2023/06/17 11:27:16;;;;;;;5.20;4.10;;;;;;;;;;5106842;28;20914;-80
2023/06/17 11:29:42;;;;;;;3.70;3.40;;;;;;;;;;5108202;28;20436;-80
2023/06/17 11:32:09;;;;;;;7.43;3.90;;;;;;;;;;5088853;28;20418;-80
2023/06/17 11:34:35;;;;;;;4.67;4.10;;;;;;;;;;5101192;28;20493;-80
2023/06/17 11:37:02;;;;;;;4.50;4.10;;;;;;;;;;5096179;28;20490;-80
2023/06/17 11:39:29;;;;;;;8.03;3.63;;;;;;;;;;5090064;28;20414;-81
2023/06/17 11:42:01;;;;;;;4.43;4.07;;;;;;;;;;5090482;28;20426;-81
2023/06/17 11:44:28;;;;;;;4.90;4.07;;;;;;;;;;5089296;28;20748;-81
2023/06/17 11:46:58;;;;;;;3.90;3.50;;;;;;;;;;5069794;28;20486;-80
2023/06/17 11:49:24;;;;;;;7.07;4.63;;;;;;;;;;5057066;28;20404;-81
2023/06/17 11:51:51;;;;;;;6.47;4.70;;;;;;;;;;5057243;28;20408;-81
2023/06/17 11:54:20;;;;;;;4.63;3.87;;;;;;;;;;5061750;28;20757;-80
2023/06/17 11:56:49;;;;;;;4.23;3.63;;;;;;;;;;5073399;28;20485;-77
2023/06/17 11:59:19;;;;;;;4.70;3.87;;;;;;;;;;5075039;28;20411;-76
2023/06/17 12:01:46;;;;;;;5.57;4.30;;;;;;;;;;5075248;28;20407;-76
2023/06/17 12:04:12;;;;;;;5.27;4.17;;;;;;;;;;5074165;28;20418;-76
2023/06/17 12:06:40;;;;;;;4.80;4.27;;;;;;;;;;5075029;28;20415;-74
2023/06/17 12:09:08;;;;;;;4.03;3.37;;;;;;;;;;5075383;28;20407;-73
2023/06/17 12:11:37;;;;;;;4.63;3.83;;;;;;;;;;5074704;28;20403;-74
2023/06/17 12:14:07;;;;;;;5.47;4.60;;;;;;;;;;5075294;28;20486;-74
2023/06/17 12:16:37;;;;;;;7.03;3.80;;;;;;;;;;5074585;28;20458;-74
2023/06/17 12:19:06;;;;;;;9.83;4.37;;;;;;;;;;5074401;28;20418;-74
2023/06/17 12:21:32;;;;;;;5.83;3.20;;;;;;;;;;5075161;28;20472;-75
2023/06/17 12:23:58;;;;;;;7.10;3.67;;;;;;;;;;5075282;28;20427;-74
2023/06/17 12:26:25;;;;;;;5.07;3.00;;;;;;;;;;5074245;28;20442;-74
2023/06/17 12:28:54;;;;;;;6.77;3.57;;;;;;;;;;5074420;28;20906;-74
2023/06/17 12:31:21;;;;;;;4.53;3.30;;;;;;;;;;5075107;28;20398;-74
2023/06/17 12:33:47;;;;;;;4.67;3.17;;;;;;;;;;5066888;28;20445;-75
2023/06/17 12:36:14;;;;;;;5.63;2.97;;;;;;;;;;5069164;28;20491;-75
2023/06/17 12:38:40;;;;;;;4.53;3.73;;;;;;;;;;5074611;28;20457;-75
2023/06/17 12:41:07;;;;;;;6.13;3.27;;;;;;;;;;5074192;28;20766;-75
2023/06/17 12:43:35;;;;;;;5.97;3.70;;;;;;;;;;5074432;28;20456;-75
2023/06/17 12:46:01;;;;;;;7.30;2.93;;;;;;;;;;5056706;28;20496;-74
2023/06/17 12:48:27;;;;;;;4.27;3.13;;;;;;;;;;5074074;28;20437;-75
2023/06/17 12:50:54;;;;;;;3.70;2.47;;;;;;;;;;5073616;28;20411;-74
2023/06/17 12:53:20;;;;;;;2.57;2.37;;;;;;;;;;5074388;28;20430;-74
2023/06/17 12:55:47;;;;;;;2.37;2.17;;;;;;;;;;5073709;28;20512;-74
2023/06/17 12:58:13;;;;;;;7.60;3.03;;;;;;;;;;5073196;28;20406;-74
2023/06/17 13:00:39;;;;;;;3.50;2.73;;;;;;;;;;5072816;28;20395;-74
2023/06/17 13:03:05;;;;;;;2.60;2.40;;;;;;;;;;5074033;28;20406;-74
2023/06/17 13:05:31;;;;;;;7.43;3.60;;;;;;;;;;5073176;28;20757;-74
2023/06/17 13:07:57;;;;;;;3.00;2.70;;;;;;;;;;5074297;28;20814;-74
2023/06/17 13:10:23;;;;;;;8.57;2.90;;;;;;;;;;5073570;28;20412;-74
2023/06/17 13:12:50;;;;;;;2.37;2.00;;;;;;;;;;5073104;28;20499;-75
2023/06/17 13:15:16;;;;;;;7.17;3.40;;;;;;;;;;5073784;28;20454;-74
2023/06/17 13:17:42;;;;;;;9.43;3.30;;;;;;;;;;5073341;28;20474;-74
2023/06/17 13:20:09;;;;;;;5.13;3.47;;;;;;;;;;5073911;28;20415;-74
2023/06/17 13:22:35;;;;;;;5.50;3.20;;;;;;;;;;5074012;28;20402;-75
2023/06/17 13:25:02;;;;;;;2.50;2.30;;;;;;;;;;5073860;28;20502;-74
2023/06/17 13:27:28;;;;;;;4.20;1.87;;;;;;;;;;5073919;28;20396;-74
2023/06/17 13:29:54;;;;;;;1.70;1.60;;;;;;;;;;5073105;28;20978;-74
2023/06/17 13:32:20;;;;;;;1.33;1.23;;;;;;;;;;5073848;28;20802;-74
2023/06/17 13:34:47;;;;;;;2.30;1.60;;;;;;;;;;5073430;28;20791;-74
2023/06/17 13:37:13;;;;;;;2.33;1.70;;;;;;;;;;5084782;28;20490;-74
2023/06/17 13:39:40;;;;;;;2.03;1.83;;;;;;;;;;5093616;28;20395;-74
2023/06/17 13:42:13;;;;;;;2.67;2.47;;;;;;;;;;5093462;28;20421;-74
2023/06/17 13:44:41;;;;;;;3.03;2.83;;;;;;;;;;5093667;28;20481;-75
2023/06/17 13:47:07;;;;;;;3.50;3.20;;;;;;;;;;5094049;28;20810;-74
2023/06/17 13:49:33;;;;;;;4.67;3.30;;;;;;;;;;5093699;28;20402;-74
2023/06/17 13:51:59;;;;;;;4.40;2.90;;;;;;;;;;5093290;28;20926;-74
2023/06/17 13:54:27;;;;;;;3.77;3.13;;;;;;;;;;5093521;28;20765;-74
2023/06/17 13:56:53;;;;;;;5.97;3.40;;;;;;;;;;5093495;28;20473;-74
2023/06/17 13:59:19;;;;;;;3.93;2.33;;;;;;;;;;5093900;28;20446;-74
2023/06/17 14:01:45;;;;;;;6.23;3.77;;;;;;;;;;5093021;28;20464;-75
2023/06/17 14:04:11;;;;;;;3.03;2.73;;;;;;;;;;5093690;28;20843;-74
2023/06/17 14:06:38;;;;;;;3.13;2.83;;;;;;;;;;5093595;28;20941;-74
2023/06/17 14:09:05;;;;;;;3.63;2.93;;;;;;;;;;5093635;28;20429;-74
2023/06/17 14:11:32;;;;;;;4.17;3.07;;;;;;;;;;5093304;28;20769;-74
2023/06/17 14:13:58;;;;;;;4.53;3.30;;;;;;;;;;5092979;28;20957;-74
2023/06/17 14:16:24;;;;;;;3.60;3.30;;;;;;;;;;5093115;28;20458;-74
2023/06/17 14:18:51;;;;;;;3.73;3.43;;;;;;;;;;5093156;28;20395;-74
2023/06/17 14:21:20;;;;;;;3.30;3.00;;;;;;;;;;5093659;28;20468;-74
2023/06/17 14:24:05;;;;;;;3.40;2.57;;;;;;;;;;5092735;28;20406;-74
2023/06/17 14:26:34;;;;;;;2.40;2.20;;;;;;;;;;5093839;28;20402;-74
2023/06/17 14:29:01;;;;;;;3.13;2.87;;;;;;;;;;5093071;28;20421;-74
2023/06/17 14:31:27;;;;;;;5.20;3.63;;;;;;;;;;5093221;28;20410;-74
2023/06/17 14:33:53;;;;;;;6.50;3.47;;;;;;;;;;5092930;28;20635;-74
2023/06/17 14:36:19;;;;;;;3.93;3.60;;;;;;;;;;5083524;28;20490;-74
2023/06/17 14:38:46;;;;;;;3.87;3.47;;;;;;;;;;5072678;28;20391;-74
2023/06/17 14:41:12;;;;;;;3.57;3.27;;;;;;;;;;5073109;28;20828;-74